createdAt,value
2022-09-26T00:01:47.649Z,4.70
2022-09-26T00:07:08.491Z,4.45
2022-09-26T00:12:29.338Z,5.20
2022-09-26T00:17:49.948Z,5.25
2022-09-26T00:23:10.842Z,6.13
2022-09-26T00:28:32.063Z,5.93
2022-09-26T00:33:53.474Z,6.60
2022-09-26T00:39:15.790Z,5.25
2022-09-26T00:44:49.388Z,5.03
2022-09-26T00:50:24.965Z,5.18
2022-09-26T00:55:51.458Z,5.90
2022-09-26T01:01:14.129Z,5.53
2022-09-26T01:06:36.046Z,5.78
2022-09-26T01:11:57.090Z,5.78
2022-09-26T01:17:18.282Z,5.75
2022-09-26T01:23:05.869Z,5.55
2022-09-26T01:29:05.797Z,5.55
2022-09-26T01:34:50.869Z,4.70
2022-09-26T01:40:23.717Z,5.75
2022-09-26T01:45:59.577Z,5.63
2022-09-26T01:51:27.335Z,5.20
2022-09-26T01:56:50.991Z,4.95
2022-09-26T02:02:19.443Z,5.43
2022-09-26T02:07:50.327Z,5.32
2022-09-26T02:13:16.698Z,5.70
2022-09-26T02:19:06.213Z,9.43
2022-09-26T02:24:28.250Z,11.60
2022-09-26T02:29:50.266Z,23.20
2022-09-26T02:35:30.858Z,7.22
2022-09-26T02:41:14.731Z,14.60
2022-09-26T02:47:07.366Z,6.40
2022-09-26T02:52:50.220Z,7.25
2022-09-26T02:58:46.035Z,6.53
2022-09-26T03:04:36.648Z,6.40
2022-09-26T03:10:00.839Z,6.07
2022-09-26T03:15:22.078Z,6.03
2022-09-26T03:20:44.204Z,5.13
2022-09-26T03:26:11.400Z,5.70
2022-09-26T03:31:41.781Z,4.88
2022-09-26T03:37:04.031Z,4.35
2022-09-26T03:42:24.893Z,5.32
2022-09-26T03:47:58.634Z,9.27
2022-09-26T03:53:19.822Z,5.07
2022-09-26T03:58:40.694Z,3.45
2022-09-26T04:04:01.955Z,3.20
2022-09-26T04:09:24.262Z,3.72
2022-09-26T04:14:46.067Z,3.22
2022-09-26T04:20:07.308Z,4.70
2022-09-26T04:25:29.724Z,4.80
2022-09-26T04:30:51.758Z,3.55
2022-09-26T04:36:15.120Z,4.38
2022-09-26T04:41:36.240Z,4.10
2022-09-26T04:47:00.042Z,3.60
2022-09-26T04:52:38.337Z,4.07
2022-09-26T04:57:59.552Z,4.35
2022-09-26T05:03:20.783Z,4.15
2022-09-26T05:08:46.485Z,4.25
2022-09-26T05:14:09.160Z,4.03
2022-09-26T05:19:30.372Z,5.18
2022-09-26T05:25:28.596Z,3.97
2022-09-26T05:30:51.424Z,4.47
2022-09-26T05:36:13.838Z,3.83
2022-09-26T05:41:35.209Z,3.50
2022-09-26T05:46:59.221Z,3.90
2022-09-26T05:52:22.846Z,3.00
2022-09-26T05:58:05.824Z,3.70
2022-09-26T06:03:47.063Z,4.25
2022-09-26T06:09:16.827Z,2.97
2022-09-26T06:15:06.462Z,4.63
2022-09-26T06:20:28.231Z,4.03
2022-09-26T06:25:50.004Z,4.20
2022-09-26T06:31:15.075Z,5.13
2022-09-26T06:37:02.510Z,4.25
2022-09-26T06:42:25.375Z,3.78
2022-09-26T06:48:10.113Z,3.50
2022-09-26T06:53:50.023Z,3.60
2022-09-26T06:59:16.836Z,4.07
2022-09-26T07:04:46.270Z,4.45
2022-09-26T07:10:14.766Z,3.85
2022-09-26T07:15:45.863Z,6.07
2022-09-26T07:21:25.461Z,14.50
2022-09-26T07:27:19.441Z,5.63
2022-09-26T07:32:44.356Z,4.50
2022-09-26T07:38:18.347Z,4.50
2022-09-26T07:49:45.512Z,4.30
2022-09-26T07:55:29.797Z,3.92
2022-09-26T08:00:56.284Z,4.53
2022-09-26T08:06:37.985Z,4.35
2022-09-26T08:12:01.411Z,4.22
2022-09-26T08:17:52.009Z,4.13
2022-09-26T08:23:14.480Z,3.95
2022-09-26T08:28:37.405Z,3.17
2022-09-26T08:33:59.503Z,4.35
2022-09-26T08:39:21.816Z,5.53
2022-09-26T08:45:36.316Z,4.00
2022-09-26T08:51:40.558Z,4.40
2022-09-26T08:57:44.921Z,3.42
2022-09-26T09:03:28.406Z,4.10
2022-09-26T09:08:55.403Z,2.85
2022-09-26T09:14:43.957Z,2.92
2022-09-26T09:21:01.884Z,2.92
2022-09-26T09:33:00.873Z,3.22
2022-09-26T09:38:32.927Z,3.20
2022-09-26T09:44:00.714Z,2.30
2022-09-26T09:49:24.177Z,2.53
2022-09-26T09:54:55.628Z,2.42
2022-09-26T10:00:25.019Z,1.98
2022-09-26T10:06:02.071Z,2.58
2022-09-26T10:11:35.204Z,2.83
2022-09-26T10:17:10.896Z,3.17
2022-09-26T10:22:56.754Z,1.92
2022-09-26T10:28:30.177Z,3.22
2022-09-26T10:34:05.330Z,1.77
2022-09-26T10:39:48.805Z,1.65
2022-09-26T10:45:16.039Z,1.60
2022-09-26T10:50:57.009Z,1.88
2022-09-26T10:56:43.511Z,2.20
2022-09-26T11:02:05.575Z,1.38
2022-09-26T11:07:34.057Z,1.38
2022-09-26T11:13:28.718Z,1.20
2022-09-26T11:19:22.347Z,1.58
2022-09-26T11:25:04.895Z,1.35
2022-09-26T11:30:29.578Z,1.40
2022-09-26T11:36:25.486Z,1.10
2022-09-26T11:41:46.636Z,0.88
2022-09-26T11:47:29.355Z,0.90
2022-09-26T11:53:10.075Z,0.80
2022-09-26T11:58:43.711Z,0.80
2022-09-26T12:04:24.519Z,0.90
2022-09-26T12:10:05.443Z,0.90
2022-09-26T12:16:22.266Z,1.10
2022-09-26T12:22:23.217Z,1.73
2022-09-26T12:27:58.845Z,0.90
2022-09-26T12:33:47.450Z,0.95
2022-09-26T12:39:43.913Z,1.02
2022-09-26T12:45:42.567Z,5.70
2022-09-26T12:51:22.834Z,1.35
2022-09-26T12:56:49.887Z,2.00
2022-09-26T13:02:34.166Z,1.05
2022-09-26T13:08:13.398Z,1.50
2022-09-26T13:13:54.324Z,1.13
2022-09-26T13:19:36.081Z,1.20
2022-09-26T13:25:01.470Z,1.30
2022-09-26T13:30:28.204Z,1.30
2022-09-26T13:35:51.806Z,1.17
2022-09-26T13:41:40.605Z,1.13
2022-09-26T13:47:38.676Z,1.00
2022-09-26T13:53:28.999Z,1.10
2022-09-26T13:59:26.062Z,0.90
2022-09-26T14:04:48.468Z,0.90
2022-09-26T14:10:19.326Z,0.90
2022-09-26T14:15:49.331Z,0.73
2022-09-26T14:21:10.802Z,1.08
2022-09-26T14:26:42.970Z,0.93
2022-09-26T14:32:05.696Z,0.70
2022-09-26T14:37:29.410Z,0.50
2022-09-26T14:43:00.269Z,0.60
2022-09-26T14:48:37.085Z,0.75
2022-09-26T14:54:03.209Z,1.42
2022-09-26T14:59:36.284Z,0.47
2022-09-26T15:05:06.612Z,0.70
2022-09-26T15:10:40.246Z,0.65
2022-09-26T15:16:24.885Z,0.60
2022-09-26T15:21:53.608Z,0.90
2022-09-26T15:27:29.930Z,0.80
2022-09-26T15:32:57.114Z,0.80
2022-09-26T15:38:18.512Z,0.90
2022-09-26T15:43:39.404Z,0.80
2022-09-26T15:49:00.621Z,0.80
2022-09-26T15:54:30.317Z,0.77
2022-09-26T15:59:53.209Z,0.70
2022-09-26T16:05:15.304Z,0.77
2022-09-26T16:10:42.703Z,0.80
2022-09-26T16:16:12.980Z,0.73
2022-09-26T16:21:36.604Z,0.85
2022-09-26T16:26:57.957Z,1.00
2022-09-26T16:32:21.195Z,1.30
2022-09-26T16:37:42.387Z,1.33
2022-09-26T16:43:27.291Z,1.52
2022-09-26T16:48:54.277Z,1.80
2022-09-26T16:54:21.126Z,3.15
2022-09-26T16:59:41.939Z,4.80
2022-09-26T17:05:02.631Z,6.68
2022-09-26T17:10:25.618Z,6.18
2022-09-26T17:15:50.764Z,4.03
2022-09-26T17:21:12.679Z,3.65
2022-09-26T17:26:35.055Z,5.07
2022-09-26T17:31:57.392Z,5.40
2022-09-26T17:37:22.046Z,4.68
2022-09-26T17:42:43.119Z,5.22
2022-09-26T17:48:10.621Z,5.55
2022-09-26T17:53:37.637Z,6.35
2022-09-26T17:58:59.184Z,6.75
2022-09-26T18:04:21.852Z,5.57
2022-09-26T18:09:44.847Z,8.18
2022-09-26T18:15:05.889Z,9.60
2022-09-26T18:20:40.050Z,7.55
2022-09-26T18:26:01.106Z,12.80
2022-09-26T18:31:29.339Z,11.45
2022-09-26T18:36:52.037Z,10.30
2022-09-26T18:42:22.425Z,9.07
2022-09-26T18:47:44.752Z,7.32
2022-09-26T18:53:20.484Z,5.90
2022-09-26T18:58:41.618Z,7.65
2022-09-26T19:04:11.742Z,4.57
2022-09-26T19:14:54.554Z,3.30
2022-09-26T19:20:15.434Z,5.25
2022-09-26T19:25:36.173Z,4.07
2022-09-26T19:30:57.111Z,3.00
2022-09-26T19:36:19.655Z,2.92
2022-09-26T19:41:40.510Z,3.05
2022-09-26T19:47:03.058Z,2.70
2022-09-26T19:52:25.151Z,3.20
2022-09-26T19:57:48.367Z,4.22
2022-09-26T20:03:42.846Z,6.43
2022-09-26T20:09:05.342Z,6.25
2022-09-26T20:14:31.115Z,6.60
2022-09-26T20:19:58.572Z,5.05
2022-09-26T20:25:28.313Z,4.40
2022-09-26T20:30:54.607Z,3.92
2022-09-26T20:36:16.272Z,3.20
2022-09-26T20:41:40.292Z,3.13
2022-09-26T20:47:06.671Z,2.95
2022-09-26T20:52:29.242Z,2.83
2022-09-26T20:57:52.921Z,3.00
2022-09-26T21:03:19.737Z,2.53
2022-09-26T21:08:41.737Z,2.65
2022-09-26T21:14:02.403Z,3.58
2022-09-26T21:19:25.421Z,2.90
2022-09-26T21:24:58.236Z,3.13
2022-09-26T21:30:19.003Z,3.30
2022-09-26T21:35:41.682Z,3.38
2022-09-26T21:41:03.965Z,2.65
2022-09-26T21:46:27.207Z,2.50
2022-09-26T21:51:54.259Z,3.33
2022-09-26T21:57:25.705Z,2.92
2022-09-26T22:02:46.528Z,2.72
2022-09-26T22:08:07.047Z,3.40
2022-09-26T22:13:27.869Z,3.42
2022-09-26T22:18:51.254Z,3.10
2022-09-26T22:24:12.781Z,3.85
2022-09-26T22:29:33.868Z,3.33
2022-09-26T22:34:54.462Z,3.97
2022-09-26T22:40:15.290Z,3.08
2022-09-26T22:45:38.244Z,2.60
2022-09-26T22:50:59.664Z,3.20
2022-09-26T22:56:20.818Z,2.45
2022-09-26T23:01:41.541Z,2.50
2022-09-26T23:07:02.020Z,2.58
2022-09-26T23:12:22.641Z,2.65
2022-09-26T23:17:43.451Z,3.00
2022-09-26T23:23:04.150Z,2.47
2022-09-26T23:28:24.892Z,3.58
2022-09-26T23:33:46.034Z,2.50
2022-09-26T23:39:07.020Z,2.83
2022-09-26T23:44:27.671Z,2.25
2022-09-26T23:49:50.169Z,2.65
2022-09-26T23:55:11.710Z,2.60
